Oxbow, North Dakota
Current Conditions -  °F | °C
As of 6:14 PM on Friday 24 Oct 2014 (Local Time) from KJKJ Reporting Station
Clear Clear  
Wind Chill: 72°   Ceiling: Unl
Heat Index: 72°   Visibility: 10mi
Dew Point: 34°   Wind: 12mph
Humidity: 25%   Direction: 280°W
Pressure: 29.82"   Gusts: 16mph
Location:  46.7039°N, 96.8572°W
Report Text: KJKJ 242314Z AUTO 28010G14KT 10SM CLR 22/01 A2982 RMK AO2
Loading
Personal Weather Stations






























Interactive Weather Map
Tropical Storm Tracking
New forecast layout! Learn more

10-Day Weather Forecast

Advertisements
Track Severe Weather on mobile